Time;durP1;ratioP1;P1;durP2;ratioP2;P2;SDS_P1;SDS_P2;PMS_P1;PMS_P2;Temp;Humidity;BMP_temperature;BMP_pressure;BME280_temperature;BME280_humidity;BME280_pressure;Samples;Min_cycle;Max_cycle;Signal;HPM_P1;HPM_P2
2022/10/27 18:00:04;;;;;;;4.68;1.77;;;;;;;18.75;62.33;101902.22;4958587;28;20621;-48
2022/10/27 18:02:31;;;;;;;3.30;1.60;;;;;;;18.95;61.86;101897.78;4945378;28;20051;-46
2022/10/27 18:04:57;;;;;;;3.47;2.33;;;;;;;19.14;61.58;101899.72;4934525;28;20058;-46
2022/10/27 18:07:24;;;;;;;3.88;2.08;;;;;;;19.30;61.03;101897.38;4930349;28;20074;-45
2022/10/27 18:09:50;;;;;;;6.47;2.30;;;;;;;19.43;61.00;101895.28;4938002;28;20047;-45
2022/10/27 18:12:17;;;;;;;5.32;2.45;;;;;;;19.56;60.22;101888.81;4937695;28;20048;-46
2022/10/27 18:14:43;;;;;;;4.78;2.63;;;;;;;19.69;60.10;101892.13;4935484;28;20055;-45
2022/10/27 18:17:10;;;;;;;4.20;2.53;;;;;;;19.79;60.27;101897.53;4936957;28;20070;-45
2022/10/27 18:19:36;;;;;;;7.05;3.55;;;;;;;19.89;59.64;101899.22;4913244;28;20265;-49
2022/10/27 18:22:03;;;;;;;5.72;3.05;;;;;;;20.00;59.97;101894.72;4944084;28;20066;-45
2022/10/27 18:24:30;;;;;;;5.53;3.33;;;;;;;20.09;60.05;101900.09;4936056;28;20054;-46
2022/10/27 18:26:56;;;;;;;6.40;3.70;;;;;;;20.18;59.44;101893.88;4939762;28;20051;-48
2022/10/27 18:29:23;;;;;;;9.10;3.72;;;;;;;20.26;59.38;101884.22;4937889;28;20237;-46
2022/10/27 18:31:52;;;;;;;7.82;3.80;;;;;;;20.32;59.39;101900.66;4935448;28;20170;-46
2022/10/27 18:34:18;;;;;;;6.25;4.00;;;;;;;20.38;59.26;101893.84;4937632;28;20051;-47
2022/10/27 18:36:45;;;;;;;9.05;4.72;;;;;;;20.43;58.88;101913.97;4937907;28;20051;-48
2022/10/27 18:39:16;;;;;;;6.72;4.15;;;;;;;20.48;58.83;101901.91;4921498;28;20051;-48
2022/10/27 18:41:43;;;;;;;7.28;4.60;;;;;;;20.52;59.15;101901.50;4938126;28;20066;-47
2022/10/27 18:44:10;;;;;;;8.27;5.05;;;;;;;20.58;58.76;101890.19;4932845;28;20193;-48
2022/10/27 18:46:37;;;;;;;8.48;5.28;;;;;;;20.61;58.97;101894.41;4934304;28;20048;-49
2022/10/27 18:49:05;;;;;;;9.80;5.75;;;;;;;20.64;58.81;101894.97;4938277;28;20624;-47
2022/10/27 18:51:41;;;;;;;9.40;5.38;;;;;;;20.67;58.52;101900.06;4936324;28;20056;-45
2022/10/27 18:54:12;;;;;;;9.10;5.82;;;;;;;20.72;58.22;101912.25;4937825;28;20086;-46
2022/10/27 18:56:38;;;;;;;10.13;6.18;;;;;;;20.74;58.58;101916.47;4935160;28;20055;-45
2022/10/27 18:59:06;;;;;;;10.77;6.68;;;;;;;20.76;58.13;101914.50;4913186;28;20055;-48
2022/10/27 19:01:33;;;;;;;10.82;7.00;;;;;;;20.79;58.54;101916.91;4924306;28;20068;-46
2022/10/27 19:04:01;;;;;;;10.85;6.68;;;;;;;20.81;58.30;101923.00;4937053;28;20084;-48
2022/10/27 19:06:31;;;;;;;10.95;6.03;;;;;;;20.83;58.04;101925.56;4939597;28;20047;-49
2022/10/27 19:08:58;;;;;;;11.88;6.82;;;;;;;20.86;58.40;101919.84;4932306;28;20055;-49
2022/10/27 19:11:25;;;;;;;11.43;7.20;;;;;;;20.88;58.41;101925.97;4922769;29;20518;-46
2022/10/27 19:13:53;;;;;;;12.30;7.32;;;;;;;20.90;58.22;101926.66;4924234;28;20245;-46
2022/10/27 19:16:24;;;;;;;11.15;6.82;;;;;;;20.92;58.36;101940.84;4923939;29;20047;-49
2022/10/27 19:18:54;;;;;;;12.82;8.05;;;;;;;20.95;58.28;101935.19;4923654;29;20074;-47
2022/10/27 19:21:21;;;;;;;12.07;7.65;;;;;;;20.95;58.73;101930.63;4904475;28;20345;-48
2022/10/27 19:23:53;;;;;;;11.68;7.25;;;;;;;20.98;58.13;101937.56;4922838;29;20337;-45
2022/10/27 19:26:23;;;;;;;11.18;6.78;;;;;;;20.98;58.54;101932.16;4925949;29;20056;-44
2022/10/27 19:28:50;;;;;;;12.50;7.63;;;;;;;21.01;58.26;101934.56;4921286;29;20059;-44
2022/10/27 19:31:21;;;;;;;12.30;7.65;;;;;;;21.02;59.03;101930.88;4918892;29;20062;-47
2022/10/27 19:33:49;;;;;;;14.10;6.78;;;;;;;21.05;58.51;101927.88;4930837;29;21522;-50
2022/10/27 19:36:20;;;;;;;12.23;7.55;;;;;;;21.07;58.09;101925.06;4931298;29;20059;-49
2022/10/27 19:38:48;;;;;;;12.20;8.60;;;;;;;21.07;58.31;101923.22;4930181;29;20055;-51
2022/10/27 19:41:17;;;;;;;16.73;7.80;;;;;;;21.07;58.09;101916.97;4927912;29;20055;-50
2022/10/27 19:43:44;;;;;;;11.30;6.97;;;;;;;21.06;57.61;101910.72;4932034;29;20066;-51
2022/10/27 19:46:18;;;;;;;12.95;7.75;;;;;;;21.06;57.56;101910.72;4934541;29;20059;-51
2022/10/27 19:49:00;;;;;;;12.60;8.25;;;;;;;21.04;57.94;101909.19;4928880;29;20051;-48
2022/10/27 19:51:37;;;;;;;13.30;7.80;;;;;;;21.04;57.65;101914.56;4928422;29;20059;-49
2022/10/27 19:54:04;;;;;;;11.80;7.07;;;;;;;21.03;57.81;101908.34;4929415;29;20588;-50
2022/10/27 19:56:35;;;;;;;12.15;7.60;;;;;;;21.02;57.63;101914.69;4929658;29;20051;-48
2022/10/27 19:59:02;;;;;;;11.63;7.50;;;;;;;21.02;57.36;101913.84;4929718;29;20075;-50
2022/10/27 20:01:32;;;;;;;12.18;7.53;;;;;;;21.00;57.71;101914.00;4930482;29;20071;-51
2022/10/27 20:04:00;;;;;;;13.55;8.55;;;;;;;20.97;57.44;101911.59;4927812;29;20043;-49
2022/10/27 20:06:27;;;;;;;12.98;7.82;;;;;;;20.96;57.00;101907.22;4944423;29;20074;-48
2022/10/27 20:08:54;;;;;;;10.30;6.75;;;;;;;20.94;57.55;101904.69;4927540;29;20048;-48
2022/10/27 20:11:25;;;;;;;12.52;7.45;;;;;;;20.95;57.57;101900.13;4928316;29;20056;-48
2022/10/27 20:13:54;;;;;;;12.35;7.97;;;;;;;20.92;57.45;101901.28;4934369;29;20572;-49
2022/10/27 20:16:22;;;;;;;11.70;7.38;;;;;;;20.92;57.48;101897.72;4930565;29;20052;-47
2022/10/27 20:18:49;;;;;;;14.45;7.68;;;;;;;20.90;57.10;101905.09;4918677;29;20055;-47
2022/10/27 20:21:15;;;;;;;13.70;7.72;;;;;;;20.88;57.04;101915.19;4919567;29;20044;-47
2022/10/27 20:23:43;;;;;;;11.27;6.95;;;;;;;20.87;57.16;101926.97;4925181;29;20047;-49
2022/10/27 20:26:11;;;;;;;11.10;7.20;;;;;;;20.85;57.06;101927.09;4927971;29;20054;-49
2022/10/27 20:28:57;;;;;;;10.50;6.72;;;;;;;20.84;57.71;101920.00;4929722;29;20419;-50
2022/10/27 20:31:24;;;;;;;10.60;6.70;;;;;;;20.83;57.46;101918.31;4934825;29;20054;-50
2022/10/27 20:33:51;;;;;;;13.40;7.47;;;;;;;20.82;57.41;101913.06;4934550;29;20088;-51
2022/10/27 20:36:17;;;;;;;11.40;7.55;;;;;;;20.81;57.19;101927.53;4934012;29;20048;-48
2022/10/27 20:38:44;;;;;;;11.50;6.70;;;;;;;20.79;57.29;101929.53;4934196;29;20098;-47
2022/10/27 20:41:14;;;;;;;16.13;7.95;;;;;;;20.78;57.34;101917.88;4930178;29;20052;-49
2022/10/27 20:43:41;;;;;;;11.05;7.00;;;;;;;20.78;57.07;101922.44;4933981;29;20054;-48
2022/10/27 20:46:08;;;;;;;10.75;7.15;;;;;;;20.76;57.12;101910.97;4935035;29;20548;-48
2022/10/27 20:48:35;;;;;;;11.68;7.00;;;;;;;20.75;57.13;101920.06;4934297;29;20040;-47
2022/10/27 20:51:10;;;;;;;11.38;7.20;;;;;;;20.73;57.76;101908.56;4934561;29;20067;-48
2022/10/27 20:53:37;;;;;;;11.52;7.65;;;;;;;20.73;57.33;101900.47;4934273;29;20059;-50
2022/10/27 20:56:05;;;;;;;11.50;7.25;;;;;;;20.70;57.44;101905.19;4932693;29;20435;-50
2022/10/27 20:58:31;;;;;;;12.70;7.80;;;;;;;20.69;57.42;101906.16;4933806;29;20457;-48
2022/10/27 21:01:21;;;;;;;11.60;7.25;;;;;;;20.67;57.32;101916.22;4932533;29;20051;-50
2022/10/27 21:03:50;;;;;;;11.10;6.78;;;;;;;20.68;57.11;101909.84;4932940;29;20067;-48
2022/10/27 21:06:17;;;;;;;10.68;6.47;;;;;;;20.67;57.74;101908.16;4935970;29;20060;-48
2022/10/27 21:08:43;;;;;;;12.27;7.70;;;;;;;20.66;57.17;101914.53;4934512;29;20040;-49
2022/10/27 21:11:10;;;;;;;14.02;7.90;;;;;;;20.65;57.05;101906.59;4933188;29;20055;-47
2022/10/27 21:13:36;;;;;;;11.90;7.60;;;;;;;20.64;57.71;101903.03;4932118;29;20055;-48
2022/10/27 21:16:03;;;;;;;11.25;6.78;;;;;;;20.62;57.60;101902.34;4929598;29;20483;-51
2022/10/27 21:18:29;;;;;;;11.55;6.60;;;;;;;20.62;57.69;101902.34;4931317;29;20058;-48
2022/10/27 21:20:56;;;;;;;12.25;6.15;;;;;;;20.62;57.49;101901.47;4928723;29;20158;-49
2022/10/27 21:23:22;;;;;;;11.98;7.20;;;;;;;20.60;57.25;101898.94;4929710;29;20052;-47
2022/10/27 21:25:49;;;;;;;11.95;7.15;;;;;;;20.60;57.54;101901.63;4929822;29;20111;-47
2022/10/27 21:28:15;;;;;;;12.75;7.57;;;;;;;20.58;57.82;101906.34;4930648;29;20056;-47
2022/10/27 21:30:42;;;;;;;12.13;7.15;;;;;;;20.57;57.16;101901.91;4930828;29;20051;-48
2022/10/27 21:33:08;;;;;;;12.65;6.97;;;;;;;20.57;57.53;101896.53;4931458;29;20052;-48
2022/10/27 21:35:35;;;;;;;11.82;7.32;;;;;;;20.55;57.46;101895.84;4930065;29;20052;-48
2022/10/27 21:38:02;;;;;;;10.23;6.70;;;;;;;20.54;57.10;101904.91;4931362;29;20054;-48
2022/10/27 21:40:28;;;;;;;9.88;6.85;;;;;;;20.54;57.42;101901.34;4930325;29;20054;-47
2022/10/27 21:42:56;;;;;;;10.43;6.82;;;;;;;20.52;57.82;101912.28;4931846;29;20056;-48
2022/10/27 21:45:22;;;;;;;10.60;6.80;;;;;;;20.51;57.95;101902.50;4932896;29;20338;-50
2022/10/27 21:47:49;;;;;;;11.38;7.40;;;;;;;20.49;57.84;101900.94;4932667;29;20056;-47
2022/10/27 21:50:16;;;;;;;10.90;6.85;;;;;;;20.50;57.23;101903.47;4931057;29;20048;-48
2022/10/27 21:52:42;;;;;;;10.02;6.93;;;;;;;20.49;57.58;101909.03;4933583;29;20103;-51
2022/10/27 21:55:09;;;;;;;9.77;6.43;;;;;;;20.48;57.70;101908.16;4931489;29;20048;-48
2022/10/27 21:57:35;;;;;;;11.43;7.25;;;;;;;20.48;57.80;101904.59;4928739;29;20110;-51
2022/10/27 22:00:03;;;;;;;12.90;7.40;;;;;;;20.46;57.81;101897.53;4929733;29;20052;-47
2022/10/27 22:02:30;;;;;;;10.20;6.38;;;;;;;20.46;57.91;101907.44;4931143;29;20070;-49
2022/10/27 22:04:56;;;;;;;8.98;5.65;;;;;;;20.44;57.74;101895.97;4929219;29;20051;-49
2022/10/27 22:07:23;;;;;;;13.82;7.03;;;;;;;20.43;57.61;101897.81;4929885;29;20447;-49
2022/10/27 22:09:49;;;;;;;10.13;6.45;;;;;;;20.42;57.41;101896.13;4929724;29;20048;-50
2022/10/27 22:12:16;;;;;;;11.93;6.85;;;;;;;20.42;57.51;101892.56;4929439;29;20060;-49
2022/10/27 22:14:42;;;;;;;11.52;7.40;;;;;;;20.41;57.90;101891.69;4930597;29;20043;-51
2022/10/27 22:17:09;;;;;;;12.40;6.97;;;;;;;20.40;57.86;101887.31;4930639;29;20446;-51
2022/10/27 22:19:36;;;;;;;11.20;7.28;;;;;;;20.41;57.90;101891.69;4932686;29;20043;-47
2022/10/27 22:22:03;;;;;;;12.68;7.10;;;;;;;20.40;57.75;101892.72;4930309;29;20059;-50
2022/10/27 22:24:30;;;;;;;11.57;7.15;;;;;;;20.39;57.39;101891.00;4930487;29;20052;-47
2022/10/27 22:26:56;;;;;;;11.00;6.63;;;;;;;20.39;57.79;101891.00;4929296;29;20051;-48
2022/10/27 22:29:23;;;;;;;10.80;6.70;;;;;;;20.38;57.62;101889.31;4931345;29;20054;-48
2022/10/27 22:31:49;;;;;;;13.85;6.90;;;;;;;20.39;57.77;101900.94;4930167;29;20048;-52
2022/10/27 22:34:16;;;;;;;10.40;6.55;;;;;;;20.38;57.87;101888.44;4928784;29;20058;-49
2022/10/27 22:36:42;;;;;;;10.65;6.88;;;;;;;20.39;57.86;101874.00;4929972;29;20103;-50
2022/10/27 22:39:10;;;;;;;10.70;6.85;;;;;;;20.38;57.68;101867.78;4930008;29;20044;-51
2022/10/27 22:41:37;;;;;;;9.68;6.45;;;;;;;20.38;57.42;101858.81;4927713;29;20051;-51
2022/10/27 22:44:05;;;;;;;10.60;6.10;;;;;;;20.37;57.42;101862.53;4930325;29;20047;-48
2022/10/27 22:46:33;;;;;;;9.85;6.25;;;;;;;20.36;57.86;101852.75;4932279;29;20054;-48
2022/10/27 22:48:59;;;;;;;11.65;5.97;;;;;;;20.37;57.66;101857.13;4932188;29;20450;-51
2022/10/27 22:51:27;;;;;;;9.68;6.40;;;;;;;20.36;57.60;101850.91;4932723;29;20043;-48
2022/10/27 22:53:55;;;;;;;10.35;6.30;;;;;;;20.35;57.77;101842.97;4933772;29;20055;-48
2022/10/27 22:56:32;;;;;;;10.75;6.45;;;;;;;20.33;57.80;101848.50;4931422;29;20051;-51
2022/10/27 22:59:00;;;;;;;10.95;6.05;;;;;;;20.34;57.77;101852.91;4930694;29;20059;-49
2022/10/27 23:01:32;;;;;;;10.30;6.03;;;;;;;20.33;57.18;101853.03;4926103;29;20051;-50
2022/10/27 23:04:01;;;;;;;10.77;6.70;;;;;;;20.32;57.13;101852.19;4933036;29;20087;-47
2022/10/27 23:06:31;;;;;;;9.27;6.22;;;;;;;20.31;57.91;101852.34;4932476;29;20067;-49
2022/10/27 23:09:00;;;;;;;10.27;5.93;;;;;;;20.30;57.44;101843.41;4933610;29;20060;-49
2022/10/27 23:11:32;;;;;;;9.18;6.10;;;;;;;20.29;57.76;101844.38;4933559;29;20059;-50
2022/10/27 23:13:59;;;;;;;9.00;6.30;;;;;;;20.27;57.95;101841.00;4932039;29;20055;-47
2022/10/27 23:16:27;;;;;;;8.75;6.00;;;;;;;20.27;57.20;101846.41;4932183;29;20289;-47
2022/10/27 23:18:55;;;;;;;9.65;5.75;;;;;;;20.27;57.91;101845.53;4931077;29;20332;-50
2022/10/27 23:21:22;;;;;;;9.93;5.90;;;;;;;20.26;57.30;101843.81;4933464;29;20058;-49
2022/10/27 23:23:50;;;;;;;8.77;6.22;;;;;;;20.25;57.45;101850.22;4932057;29;20435;-50
2022/10/27 23:26:26;;;;;;;9.02;5.97;;;;;;;20.21;57.46;101845.09;4932788;29;20351;-50
2022/10/27 23:28:54;;;;;;;8.25;5.82;;;;;;;20.23;57.48;101841.44;4933665;29;20051;-51
2022/10/27 23:31:23;;;;;;;10.32;6.35;;;;;;;20.21;57.63;101845.09;4934135;29;20052;-50
2022/10/27 23:33:54;;;;;;;9.63;6.50;;;;;;;20.20;57.86;101846.09;4950236;29;20346;-49
2022/10/27 23:36:22;;;;;;;9.38;6.13;;;;;;;20.19;57.38;101841.72;4935725;29;20438;-48
2022/10/27 23:38:49;;;;;;;10.13;6.60;;;;;;;20.18;57.48;101850.81;4935171;29;20359;-49
2022/10/27 23:41:16;;;;;;;10.60;6.35;;;;;;;20.17;58.01;101849.06;4931191;29;20047;-51
2022/10/27 23:43:51;;;;;;;8.75;5.60;;;;;;;20.17;57.73;101850.94;4933902;29;20055;-48
2022/10/27 23:46:18;;;;;;;9.15;5.90;;;;;;;20.16;57.54;101851.94;4935994;29;20052;-51
2022/10/27 23:48:44;;;;;;;8.77;5.72;;;;;;;20.15;57.70;101845.69;4935230;29;20064;-48
2022/10/27 23:51:11;;;;;;;11.43;6.22;;;;;;;20.14;57.70;101852.09;4934038;29;20477;-50
2022/10/27 23:53:39;;;;;;;9.20;5.40;;;;;;;20.14;57.98;101851.19;4935875;29;20056;-48
2022/10/27 23:56:08;;;;;;;8.20;5.78;;;;;;;20.14;57.58;101853.91;4935470;29;20427;-50
2022/10/27 23:58:39;;;;;;;9.43;6.13;;;;;;;20.13;57.80;101844.13;4933165;29;20442;-50
